AirBox status report


DeploymentNumber of DevicesDetailAvg. TemperatureAvg. HumidityAvg. PM2.5Version
1 Edimax AirBox (Taipei) 13.55% (21/155) [HTML] [JSON] [Dataset A]34.07℃ 89.48% 3.05 μg/m3 2018-07-18T17:46:46Z
2 Edimax AirBox (New Taipei) 26.17% (78/298) [HTML] [JSON] [Dataset B]32.96℃ 89.91% 1.6 μg/m3 2018-07-18T17:46:46Z
3 Edimax AirBox (Taoyuan) 28.94% (68/235) [HTML] [JSON] [Dataset A]33.34℃ 76.18% 2.66 μg/m3 2018-07-18T17:46:46Z
4 Edimax AirBox (Taichung) 44.83% (104/232) [HTML] [JSON] [Dataset B]33.56℃ 87.07% 26.8 μg/m3 2018-07-18T17:46:46Z
5 Edimax AirBox (Tainan) 42.06% (90/214) [HTML] [JSON] [Dataset B]33.32℃ 91.3% 14.23 μg/m3 2018-07-18T17:46:46Z
6 Edimax AirBox (Kaohsiung) 50% (121/242) [HTML] [JSON] [Dataset B]32.94℃ 94.7% 15.79 μg/m3 2018-07-18T17:46:46Z
7 Edimax AirBox (Korea) 100% (750/750) [HTML] [JSON] [Dataset L]31.13℃ 77.88% 50.83 μg/m3 2018-07-18T17:46:46Z
8 Edimax AirBox (LASS) 6.76% (5/74) [HTML] [JSON] [Dataset A]33.1℃ 79% 14.6 μg/m3 2018-07-18T17:46:46Z
9 Edimax AirBox (TaichungZero) 40.54% (60/148) [HTML] [JSON] [Dataset A]33.64℃ 84.52% 21.05 μg/m3 2018-07-18T17:46:46Z
10 Edimax AirBox (TaoyuanFirst) 37.04% (10/27) [HTML] [JSON] [Dataset A]33.15℃ 78.3% 2.3 μg/m3 2018-07-18T17:46:46Z
11 Edimax AirBox (other) 100% (585/585) [HTML] [JSON] [Dataset A]32.25℃ 75% 15 μg/m3 2018-07-18T17:46:46Z
12 LASS AirBox (Hsinchu) 38% (19/50) [HTML] [JSON] [Dataset A]34.6℃ 76.37% 5.79 μg/m3 2018-07-18T17:46:46Z
13 LASS AirBox (Yunlin) 30.57% (59/193) [HTML] [JSON] [Dataset A]33.35℃ 87.64% 15.41 μg/m3 2018-07-18T17:46:46Z
14 LASS AirBox (Chiayi) 41.18% (21/51) [HTML] [JSON] [Dataset A]33.18℃ 79.29% 10.1 μg/m3 2018-07-18T17:46:46Z
15 LASS AirBox (Chiayi County) 30% (54/180) [HTML] [JSON] [Dataset A]32.07℃ 79.43% 14.06 μg/m3 2018-07-18T17:46:46Z
16 LASS AirBox (Kinmen) 20.83% (5/24) [HTML] [JSON] [Dataset A]32.62℃ 90.6% 9.4 μg/m3 2018-07-18T17:46:46Z
17 LASS (LASS FT) 100% (60/60) [HTML] [JSON] [Dataset C]28.6℃ 62.87% 9.93 μg/m3 2018-07-18T17:46:46Z
18 LASS (LASS4U) 100% (58/58) [HTML] [JSON] [Dataset D]28.5℃ 64.43% 13.21 μg/m3 2018-07-18T17:46:46Z
19 MAPS (WiFi) 6.9% (6/87) [HTML] [JSON] [Dataset E]-72.45℃ 38.37% 13.5 μg/m3 2018-07-18T17:46:46Z
20 MAPS (RESCUE_TW) 21.88% (7/32) [HTML] [JSON] [Dataset K]29.57℃ 50.76% 7.71 μg/m3 2018-07-18T17:46:46Z
21 MAPS (other) N/A (0/0) [HTML] [JSON] [Dataset E]0℃ 0% 0 μg/m3 2018-07-18T17:46:46Z
22 ASLUNG 100% (42/42) [HTML] [JSON] [Dataset F]26.43℃ 76.98% 43.93 μg/m3 2018-07-18T17:46:46Z
23 *AirQ 100% (128/128) [HTML] [JSON] [Dataset J]0℃ 0% 19.6 μg/m3 2018-07-18T17:46:46Z
24 *Asus AirBox 100% (64/64) [HTML] [JSON] [Dataset G]31.38℃ 76.62% 10.02 μg/m3 2018-07-18T17:46:46Z
25 *gov Indie N/A (0/0) [HTML] [JSON] [Dataset H]0℃ 0% 0 μg/m3 2018-07-18T17:46:46Z
26 *ProbeCube 100% (5/5) [HTML] [JSON] [Dataset I]28.98℃ 59.72% 9.4 μg/m3 2018-07-18T17:46:46Z
27 Total 61.51% (2420/3934)

Resource:

Note: